Portada
METAR-TAF:

METAR-TAF

Aeroports :

Burayda, Aràbia Saudita

latitud: 26-18N, longitud: 043-46E, altitud: 648 m

Observació

L'informe es va fer fa 1 hora i 3 minuts, a les 14:00 UTC
Vent 11 kt del Nord-Est
Temperatura 32°C
Humitat 20%
Pressió 1013 hPa
Visibilitat: 5000 m
Núvols disperses a una alçada de 4000 ft
Pols estès

METAR: OEGS 251400Z 04011KT 5000 DU SCT040 32/06 Q1013

Hora: 18:03 (15:03 UTC)

Pronòstic

L'informe es va fer fa 4 hores i 3 minuts, a les 11:00 UTC
Pronòstic vàlid del 25 a les 12 UTC al 26 a les 18 UTC
Vent 16 kt del Nord-Est
Visibilitat: 7000 m
Temporalment
l' 25 a les 12 UTC al 25 a les 18 UTC
Visibilitat: 3500 m
Evolucionant progressivament
l' 25 a les 18 UTC al 25 a les 20 UTC
Vent 3 kt amb direcció variable

TAF: OEGS 251100Z 2512/2618 04016KT 7000 NSC TEMPO 2512/2518 3500 BECMG 2518/2520 VRB03KT

Observacions i pronòstics meteorològics de més de 4000 aeroports (METAR i TAF).

Les estacions disponibles són els punts grocs i vermells al mapa.

Posi el ratolí al punt desitjat per veure el nom de l'estació.

Feu clic per veure les observacions i els pronòstics meteorològics.

Per canviar el mapa: feu clic els botons verds amb una creu de color negre per apropar; al botó verd amb un guió per allunyar la imatge; o en les fletxes verdes per a mapes adjacents.


METAR-TAF: